West Windsor, NJ

2:12 AM EDT on September 05, 2015 (GMT -0400)
East Windsor - rural | | Change Station
CLOSE
Current Station
Personal Weather Station
Location: East Windsor, NJ
Elevation: 174 ft
Nearby Weather Stations

Elev 174 ft 40.24 °N, 74.52 °W | Updated 9 seconds ago

Mostly Cloudy
Mostly Cloudy
69.5 °F
Feels Like 69.5 °F
N
0.0
Wind Variable Wind from NNE
Gusts 0.0 mph

Today
High -- | Low -- °F
--% Chance of Precip.
Yesterday
High -- | Low -- °F
Precip. -- in
6:29 AM 7:23 PM
Waning Gibbous, 52% visible
Pressure 30.17 in
Visibility 10.0 miles
Clouds Mostly Cloudy 1700 ft
Overcast 8000 ft
Dew Point 66 °F
Humidity 87%
Rainfall 0.00 in
Snow Depth Not available.
UV 0 out of 12
Pollen 9.00 out of 12
Air Quality Not available.
Flu Activity Not available.
METAR KTTN 050553Z AUTO 08008KT 10SM BKN017 OVC080 21/18 A3019 RMK AO2 SLP216 T02110178 10233 20206 50001
Pressure 30.17 in
Visibility 10.0 miles
Clouds Mostly Cloudy 1700 ft
Overcast 8000 ft
Dew Point 66 °F
Humidity 87%
Rainfall 0.00 in
Snow Depth Not available.
UV 0 out of 12
Pollen 9.00 out of 12
Air Quality Not available.
Flu Activity Not available.
METAR KTTN 050553Z AUTO 08008KT 10SM BKN017 OVC080 21/18 A3019 RMK AO2 SLP216 T02110178 10233 20206 50001

10-Day Weather Forecast

×

Almanac

Astronomy

Sep. 05, 2015 Rise Set
Actual Time
Civil Twilight
Nautical Twilight
Astronomical Twilight
Moon
Length of Visible Light
Length of Day
Tomorrow will be .
, % of the Moon is Illuminated

Today's Extremes

State Highs State Lows

Community

WunderPhotos

Upload Photos

1,852,431 photos uploaded!

WunderBlogs® & News

Nearby

Air Quality

  Air Quality AQ Index Pollutant
Not available.

Snow Depth

Station Depth Elevation

Earthquake Activity

City Distance Mag. Time & Date
Minimum magnitude displayed is 2.5.

Coastal Water Temperatures

Place Temperature

Stations

Nearby Weather Stations

Station Location Temp. Windchill Dew Point Humidity Wind Precip. Elev Updated Type